sensor_id;sensor_type;location;lat;lon;timestamp;temperature;humidity
25346;DHT22;13300;51.032;3.710;2023-02-15T00:02:04;6.50;99.90
25346;DHT22;13300;51.032;3.710;2023-02-15T00:04:30;6.40;99.90
25346;DHT22;13300;51.032;3.710;2023-02-15T00:07:16;6.40;99.90
25346;DHT22;13300;51.032;3.710;2023-02-15T00:09:42;6.40;99.90
25346;DHT22;13300;51.032;3.710;2023-02-15T00:12:12;6.30;99.90
25346;DHT22;13300;51.032;3.710;2023-02-15T00:14:38;6.40;99.90
25346;DHT22;13300;51.032;3.710;2023-02-15T00:17:07;6.30;99.90
25346;DHT22;13300;51.032;3.710;2023-02-15T00:19:35;6.30;99.90
25346;DHT22;13300;51.032;3.710;2023-02-15T00:22:01;6.20;99.90
25346;DHT22;13300;51.032;3.710;2023-02-15T00:24:59;6.10;99.90
25346;DHT22;13300;51.032;3.710;2023-02-15T00:27:33;6.10;99.90
25346;DHT22;13300;51.032;3.710;2023-02-15T00:29:59;6.00;99.90
25346;DHT22;13300;51.032;3.710;2023-02-15T00:32:25;6.00;99.90
25346;DHT22;13300;51.032;3.710;2023-02-15T00:34:50;6.00;99.90
25346;DHT22;13300;51.032;3.710;2023-02-15T00:37:16;6.00;99.90
25346;DHT22;13300;51.032;3.710;2023-02-15T00:39:42;6.00;99.90
25346;DHT22;13300;51.032;3.710;2023-02-15T00:42:09;6.00;99.90
25346;DHT22;13300;51.032;3.710;2023-02-15T00:44:35;6.00;99.90
25346;DHT22;13300;51.032;3.710;2023-02-15T00:47:01;5.90;99.90
25346;DHT22;13300;51.032;3.710;2023-02-15T00:49:27;5.80;99.90
25346;DHT22;13300;51.032;3.710;2023-02-15T00:51:53;5.80;99.90
25346;DHT22;13300;51.032;3.710;2023-02-15T00:54:18;5.80;99.90
25346;DHT22;13300;51.032;3.710;2023-02-15T00:56:45;5.70;99.90
25346;DHT22;13300;51.032;3.710;2023-02-15T00:59:11;5.70;99.90
25346;DHT22;13300;51.032;3.710;2023-02-15T01:01:40;5.70;99.90
25346;DHT22;13300;51.032;3.710;2023-02-15T01:04:06;5.70;99.90
25346;DHT22;13300;51.032;3.710;2023-02-15T01:06:32;5.70;99.90
25346;DHT22;13300;51.032;3.710;2023-02-15T01:09:00;5.70;99.90
25346;DHT22;13300;51.032;3.710;2023-02-15T01:11:26;5.70;99.90
25346;DHT22;13300;51.032;3.710;2023-02-15T01:13:55;5.70;99.90
25346;DHT22;13300;51.032;3.710;2023-02-15T01:16:22;5.70;99.90
25346;DHT22;13300;51.032;3.710;2023-02-15T01:18:49;5.70;99.90
25346;DHT22;13300;51.032;3.710;2023-02-15T01:21:19;5.60;99.90
25346;DHT22;13300;51.032;3.710;2023-02-15T01:23:46;5.60;99.90
25346;DHT22;13300;51.032;3.710;2023-02-15T01:26:12;5.60;99.90
25346;DHT22;13300;51.032;3.710;2023-02-15T01:28:58;5.60;99.90
25346;DHT22;13300;51.032;3.710;2023-02-15T01:31:25;5.60;99.90
25346;DHT22;13300;51.032;3.710;2023-02-15T01:33:53;5.60;99.90
25346;DHT22;13300;51.032;3.710;2023-02-15T01:36:21;5.50;99.90
25346;DHT22;13300;51.032;3.710;2023-02-15T01:38:47;5.50;99.90
25346;DHT22;13300;51.032;3.710;2023-02-15T01:41:16;5.50;99.90
25346;DHT22;13300;51.032;3.710;2023-02-15T01:44:02;5.50;99.90
25346;DHT22;13300;51.032;3.710;2023-02-15T01:46:38;5.50;99.90
25346;DHT22;13300;51.032;3.710;2023-02-15T01:49:15;5.60;99.90
25346;DHT22;13300;51.032;3.710;2023-02-15T01:51:43;5.50;99.90
25346;DHT22;13300;51.032;3.710;2023-02-15T01:54:33;5.40;99.90
25346;DHT22;13300;51.032;3.710;2023-02-15T01:57:05;5.30;99.90
25346;DHT22;13300;51.032;3.710;2023-02-15T01:59:31;5.40;99.90
25346;DHT22;13300;51.032;3.710;2023-02-15T02:01:59;5.40;99.90
25346;DHT22;13300;51.032;3.710;2023-02-15T02:06:59;5.30;99.90
25346;DHT22;13300;51.032;3.710;2023-02-15T02:09:25;5.30;99.90
25346;DHT22;13300;51.032;3.710;2023-02-15T02:11:51;5.20;99.90
25346;DHT22;13300;51.032;3.710;2023-02-15T02:14:20;5.20;99.90
25346;DHT22;13300;51.032;3.710;2023-02-15T02:23:13;5.30;99.90
25346;DHT22;13300;51.032;3.710;2023-02-15T02:36:43;5.20;99.90
25346;DHT22;13300;51.032;3.710;2023-02-15T02:39:37;5.10;99.90
25346;DHT22;13300;51.032;3.710;2023-02-15T02:42:24;5.20;99.90
25346;DHT22;13300;51.032;3.710;2023-02-15T02:45:02;5.30;99.90
25346;DHT22;13300;51.032;3.710;2023-02-15T02:48:07;5.10;99.90
25346;DHT22;13300;51.032;3.710;2023-02-15T02:50:39;5.10;99.90
25346;DHT22;13300;51.032;3.710;2023-02-15T02:53:06;5.20;99.90
25346;DHT22;13300;51.032;3.710;2023-02-15T02:55:45;5.20;99.90
25346;DHT22;13300;51.032;3.710;2023-02-15T03:00:57;5.20;99.90
25346;DHT22;13300;51.032;3.710;2023-02-15T03:03:26;5.20;99.90
25346;DHT22;13300;51.032;3.710;2023-02-15T03:05:59;5.10;99.90
25346;DHT22;13300;51.032;3.710;2023-02-15T03:08:30;5.10;99.90
25346;DHT22;13300;51.032;3.710;2023-02-15T03:11:00;5.10;99.90
25346;DHT22;13300;51.032;3.710;2023-02-15T03:13:27;5.10;99.90
25346;DHT22;13300;51.032;3.710;2023-02-15T03:16:07;5.10;99.90
25346;DHT22;13300;51.032;3.710;2023-02-15T03:19:19;5.10;99.90
25346;DHT22;13300;51.032;3.710;2023-02-15T03:22:00;5.10;99.90
25346;DHT22;13300;51.032;3.710;2023-02-15T03:24:38;5.10;99.90
25346;DHT22;13300;51.032;3.710;2023-02-15T03:27:14;5.10;99.90
25346;DHT22;13300;51.032;3.710;2023-02-15T03:29:47;5.10;99.90
25346;DHT22;13300;51.032;3.710;2023-02-15T03:32:14;5.10;99.90
25346;DHT22;13300;51.032;3.710;2023-02-15T03:34:53;5.10;99.90
25346;DHT22;13300;51.032;3.710;2023-02-15T03:39:59;5.10;99.90
25346;DHT22;13300;51.032;3.710;2023-02-15T03:42:45;5.10;99.90
25346;DHT22;13300;51.032;3.710;2023-02-15T03:45:26;5.10;99.90
25346;DHT22;13300;51.032;3.710;2023-02-15T03:48:00;5.10;99.90
25346;DHT22;13300;51.032;3.710;2023-02-15T03:50:32;5.00;99.90
25346;DHT22;13300;51.032;3.710;2023-02-15T03:53:22;5.00;99.90
25346;DHT22;13300;51.032;3.710;2023-02-15T03:56:00;5.00;99.90
25346;DHT22;13300;51.032;3.710;2023-02-15T03:58:26;4.90;99.90
25346;DHT22;13300;51.032;3.710;2023-02-15T04:01:26;4.80;99.90
25346;DHT22;13300;51.032;3.710;2023-02-15T04:04:23;4.80;99.90
25346;DHT22;13300;51.032;3.710;2023-02-15T04:06:50;4.80;99.90
25346;DHT22;13300;51.032;3.710;2023-02-15T04:09:16;4.80;99.90
25346;DHT22;13300;51.032;3.710;2023-02-15T04:12:00;4.80;99.90
25346;DHT22;13300;51.032;3.710;2023-02-15T04:14:26;4.70;99.90
25346;DHT22;13300;51.032;3.710;2023-02-15T04:17:10;4.80;99.90
25346;DHT22;13300;51.032;3.710;2023-02-15T04:19:36;4.70;99.90
25346;DHT22;13300;51.032;3.710;2023-02-15T04:22:21;4.70;99.90
25346;DHT22;13300;51.032;3.710;2023-02-15T04:25:05;4.70;99.90
25346;DHT22;13300;51.032;3.710;2023-02-15T04:27:47;4.60;99.90
25346;DHT22;13300;51.032;3.710;2023-02-15T04:30:18;4.70;99.90
25346;DHT22;13300;51.032;3.710;2023-02-15T04:32:54;4.60;99.90
25346;DHT22;13300;51.032;3.710;2023-02-15T04:35:23;4.60;99.90
25346;DHT22;13300;51.032;3.710;2023-02-15T04:37:49;4.60;99.90
25346;DHT22;13300;51.032;3.710;2023-02-15T04:40:26;4.60;99.90
25346;DHT22;13300;51.032;3.710;2023-02-15T04:42:53;4.60;99.90
25346;DHT22;13300;51.032;3.710;2023-02-15T04:45:19;4.70;99.90
25346;DHT22;13300;51.032;3.710;2023-02-15T04:47:45;4.60;99.90
25346;DHT22;13300;51.032;3.710;2023-02-15T04:50:11;4.60;99.90
25346;DHT22;13300;51.032;3.710;2023-02-15T04:52:36;4.50;99.90
25346;DHT22;13300;51.032;3.710;2023-02-15T04:55:02;4.50;99.90
25346;DHT22;13300;51.032;3.710;2023-02-15T04:57:28;4.40;99.90
25346;DHT22;13300;51.032;3.710;2023-02-15T04:59:57;4.60;99.90
25346;DHT22;13300;51.032;3.710;2023-02-15T05:02:27;4.70;99.90
25346;DHT22;13300;51.032;3.710;2023-02-15T05:04:52;4.70;99.90
25346;DHT22;13300;51.032;3.710;2023-02-15T05:07:18;4.70;99.90
25346;DHT22;13300;51.032;3.710;2023-02-15T05:09:45;4.70;99.90
25346;DHT22;13300;51.032;3.710;2023-02-15T05:12:11;4.60;99.90
25346;DHT22;13300;51.032;3.710;2023-02-15T05:14:39;4.50;99.90
25346;DHT22;13300;51.032;3.710;2023-02-15T05:17:08;4.60;99.90
25346;DHT22;13300;51.032;3.710;2023-02-15T05:19:33;4.50;99.90
25346;DHT22;13300;51.032;3.710;2023-02-15T05:22:05;4.60;99.90
25346;DHT22;13300;51.032;3.710;2023-02-15T05:24:31;4.50;99.90
25346;DHT22;13300;51.032;3.710;2023-02-15T05:27:15;4.50;99.90
25346;DHT22;13300;51.032;3.710;2023-02-15T05:29:59;4.40;99.90
25346;DHT22;13300;51.032;3.710;2023-02-15T05:32:25;4.50;99.90
25346;DHT22;13300;51.032;3.710;2023-02-15T05:34:53;4.50;99.90
25346;DHT22;13300;51.032;3.710;2023-02-15T05:37:19;4.40;99.90
25346;DHT22;13300;51.032;3.710;2023-02-15T05:39:45;4.30;99.90
25346;DHT22;13300;51.032;3.710;2023-02-15T05:42:11;4.40;99.90
25346;DHT22;13300;51.032;3.710;2023-02-15T05:44:36;4.50;99.90
25346;DHT22;13300;51.032;3.710;2023-02-15T05:47:05;4.40;99.90
25346;DHT22;13300;51.032;3.710;2023-02-15T05:49:33;4.40;99.90
25346;DHT22;13300;51.032;3.710;2023-02-15T05:51:59;4.50;99.90
25346;DHT22;13300;51.032;3.710;2023-02-15T05:54:25;4.40;99.90
25346;DHT22;13300;51.032;3.710;2023-02-15T05:56:51;4.40;99.90
25346;DHT22;13300;51.032;3.710;2023-02-15T05:59:16;4.40;99.90
25346;DHT22;13300;51.032;3.710;2023-02-15T06:01:42;4.40;99.90
25346;DHT22;13300;51.032;3.710;2023-02-15T06:04:09;4.40;99.90
25346;DHT22;13300;51.032;3.710;2023-02-15T06:06:37;4.50;99.90
25346;DHT22;13300;51.032;3.710;2023-02-15T06:09:05;4.40;99.90
25346;DHT22;13300;51.032;3.710;2023-02-15T06:11:37;4.40;99.90
25346;DHT22;13300;51.032;3.710;2023-02-15T06:14:02;4.40;99.90
25346;DHT22;13300;51.032;3.710;2023-02-15T06:16:52;4.40;99.90
25346;DHT22;13300;51.032;3.710;2023-02-15T06:19:20;4.40;99.90
25346;DHT22;13300;51.032;3.710;2023-02-15T06:21:55;4.40;99.90
25346;DHT22;13300;51.032;3.710;2023-02-15T06:24:24;4.50;99.90
25346;DHT22;13300;51.032;3.710;2023-02-15T06:26:50;4.50;99.90
25346;DHT22;13300;51.032;3.710;2023-02-15T06:29:16;4.60;99.90
25346;DHT22;13300;51.032;3.710;2023-02-15T06:31:42;4.50;99.90
25346;DHT22;13300;51.032;3.710;2023-02-15T06:34:08;4.50;99.90
25346;DHT22;13300;51.032;3.710;2023-02-15T06:36:36;4.60;99.90
25346;DHT22;13300;51.032;3.710;2023-02-15T06:39:05;4.60;99.90
25346;DHT22;13300;51.032;3.710;2023-02-15T06:41:31;4.60;99.90
25346;DHT22;13300;51.032;3.710;2023-02-15T06:44:00;4.60;99.90
25346;DHT22;13300;51.032;3.710;2023-02-15T06:46:26;4.60;99.90
25346;DHT22;13300;51.032;3.710;2023-02-15T06:48:52;4.70;99.90
25346;DHT22;13300;51.032;3.710;2023-02-15T06:51:18;4.70;99.90
25346;DHT22;13300;51.032;3.710;2023-02-15T06:53:44;4.80;99.90
25346;DHT22;13300;51.032;3.710;2023-02-15T06:56:20;4.80;99.90
25346;DHT22;13300;51.032;3.710;2023-02-15T06:58:46;4.80;99.90
25346;DHT22;13300;51.032;3.710;2023-02-15T07:01:15;4.80;99.90
25346;DHT22;13300;51.032;3.710;2023-02-15T07:03:44;4.80;99.90
25346;DHT22;13300;51.032;3.710;2023-02-15T07:06:15;4.90;99.90
25346;DHT22;13300;51.032;3.710;2023-02-15T07:08:41;5.00;99.90
25346;DHT22;13300;51.032;3.710;2023-02-15T07:11:09;5.00;99.90
25346;DHT22;13300;51.032;3.710;2023-02-15T07:13:56;5.10;99.90
25346;DHT22;13300;51.032;3.710;2023-02-15T07:16:22;5.20;99.90
25346;DHT22;13300;51.032;3.710;2023-02-15T07:18:55;5.30;99.90
25346;DHT22;13300;51.032;3.710;2023-02-15T07:21:30;5.40;99.90
25346;DHT22;13300;51.032;3.710;2023-02-15T07:24:25;5.60;99.90
25346;DHT22;13300;51.032;3.710;2023-02-15T07:26:51;5.80;99.90
25346;DHT22;13300;51.032;3.710;2023-02-15T07:29:17;6.10;99.90
25346;DHT22;13300;51.032;3.710;2023-02-15T07:31:43;6.50;99.90
25346;DHT22;13300;51.032;3.710;2023-02-15T07:34:11;6.90;99.90
25346;DHT22;13300;51.032;3.710;2023-02-15T07:42:53;7.70;99.90
25346;DHT22;13300;51.032;3.710;2023-02-15T07:45:40;8.40;99.90
25346;DHT22;13300;51.032;3.710;2023-02-15T07:48:22;8.90;99.90
25346;DHT22;13300;51.032;3.710;2023-02-15T07:50:57;9.40;99.90
25346;DHT22;13300;51.032;3.710;2023-02-15T07:53:33;9.90;99.90
25346;DHT22;13300;51.032;3.710;2023-02-15T07:56:02;10.00;99.90
25346;DHT22;13300;51.032;3.710;2023-02-15T07:58:41;10.00;99.90
25346;DHT22;13300;51.032;3.710;2023-02-15T08:01:22;10.30;99.90
25346;DHT22;13300;51.032;3.710;2023-02-15T08:03:50;10.40;99.90
25346;DHT22;13300;51.032;3.710;2023-02-15T08:06:16;10.70;99.90
25346;DHT22;13300;51.032;3.710;2023-02-15T08:08:46;10.90;99.90
25346;DHT22;13300;51.032;3.710;2023-02-15T08:16:33;11.90;99.90
25346;DHT22;13300;51.032;3.710;2023-02-15T08:21:42;12.50;99.90
25346;DHT22;13300;51.032;3.710;2023-02-15T08:24:10;12.70;99.90
25346;DHT22;13300;51.032;3.710;2023-02-15T08:26:41;13.10;99.90
25346;DHT22;13300;51.032;3.710;2023-02-15T08:29:20;13.20;99.90
25346;DHT22;13300;51.032;3.710;2023-02-15T08:32:12;13.20;99.90
25346;DHT22;13300;51.032;3.710;2023-02-15T08:34:44;13.30;99.90
25346;DHT22;13300;51.032;3.710;2023-02-15T08:50:52;12.10;99.90
25346;DHT22;13300;51.032;3.710;2023-02-15T08:53:23;12.40;99.90
25346;DHT22;13300;51.032;3.710;2023-02-15T08:55:59;12.80;99.90
25346;DHT22;13300;51.032;3.710;2023-02-15T09:05:35;13.20;99.90
25346;DHT22;13300;51.032;3.710;2023-02-15T09:08:20;13.30;99.90
25346;DHT22;13300;51.032;3.710;2023-02-15T09:14:14;12.80;99.90
25346;DHT22;13300;51.032;3.710;2023-02-15T09:16:44;12.60;99.90
25346;DHT22;13300;51.032;3.710;2023-02-15T09:19:51;12.70;99.90
25346;DHT22;13300;51.032;3.710;2023-02-15T09:26:17;13.20;99.90
25346;DHT22;13300;51.032;3.710;2023-02-15T09:29:14;13.30;99.90
25346;DHT22;13300;51.032;3.710;2023-02-15T09:31:55;13.50;99.90
25346;DHT22;13300;51.032;3.710;2023-02-15T09:56:39;15.00;99.90
25346;DHT22;13300;51.032;3.710;2023-02-15T10:18:02;15.90;99.90
25346;DHT22;13300;51.032;3.710;2023-02-15T10:20:55;15.70;99.90
25346;DHT22;13300;51.032;3.710;2023-02-15T10:23:45;15.90;99.90
25346;DHT22;13300;51.032;3.710;2023-02-15T10:26:22;16.20;99.90
25346;DHT22;13300;51.032;3.710;2023-02-15T10:34:43;16.30;99.90
25346;DHT22;13300;51.032;3.710;2023-02-15T10:37:31;16.00;99.90
25346;DHT22;13300;51.032;3.710;2023-02-15T10:53:07;16.50;99.90
25346;DHT22;13300;51.032;3.710;2023-02-15T10:55:52;16.40;99.90
25346;DHT22;13300;51.032;3.710;2023-02-15T11:06:12;17.40;99.90
25346;DHT22;13300;51.032;3.710;2023-02-15T11:08:48;17.70;99.90
25346;DHT22;13300;51.032;3.710;2023-02-15T11:11:38;17.90;99.90
25346;DHT22;13300;51.032;3.710;2023-02-15T11:14:18;17.90;99.90
25346;DHT22;13300;51.032;3.710;2023-02-15T11:16:51;17.90;99.90
25346;DHT22;13300;51.032;3.710;2023-02-15T11:19:32;17.70;99.90
25346;DHT22;13300;51.032;3.710;2023-02-15T11:22:06;17.40;99.90
25346;DHT22;13300;51.032;3.710;2023-02-15T11:24:38;17.30;99.90
25346;DHT22;13300;51.032;3.710;2023-02-15T11:27:31;16.50;99.90
25346;DHT22;13300;51.032;3.710;2023-02-15T11:30:14;16.70;99.90
25346;DHT22;13300;51.032;3.710;2023-02-15T11:32:50;17.70;99.90
25346;DHT22;13300;51.032;3.710;2023-02-15T11:35:24;18.50;99.90
25346;DHT22;13300;51.032;3.710;2023-02-15T11:38:35;18.90;99.90
25346;DHT22;13300;51.032;3.710;2023-02-15T11:40:51;19.40;99.90
25346;DHT22;13300;51.032;3.710;2023-02-15T11:46:02;18.70;99.90
25346;DHT22;13300;51.032;3.710;2023-02-15T11:48:31;18.20;99.90
25346;DHT22;13300;51.032;3.710;2023-02-15T11:51:00;17.30;99.90
25346;DHT22;13300;51.032;3.710;2023-02-15T11:53:30;17.60;99.90
25346;DHT22;13300;51.032;3.710;2023-02-15T11:55:57;17.70;99.90
25346;DHT22;13300;51.032;3.710;2023-02-15T11:58:37;18.30;99.90
25346;DHT22;13300;51.032;3.710;2023-02-15T12:04:54;19.00;99.90
25346;DHT22;13300;51.032;3.710;2023-02-15T12:11:27;20.10;98.00
25346;DHT22;13300;51.032;3.710;2023-02-15T12:14:00;19.90;98.50
25346;DHT22;13300;51.032;3.710;2023-02-15T12:16:28;20.00;98.00
25346;DHT22;13300;51.032;3.710;2023-02-15T12:18:59;19.50;98.50
25346;DHT22;13300;51.032;3.710;2023-02-15T12:21:41;19.00;98.80
25346;DHT22;13300;51.032;3.710;2023-02-15T12:24:30;18.20;99.90
25346;DHT22;13300;51.032;3.710;2023-02-15T12:29:27;17.10;99.90
25346;DHT22;13300;51.032;3.710;2023-02-15T12:31:53;17.20;99.90
25346;DHT22;13300;51.032;3.710;2023-02-15T12:34:24;17.20;99.90
25346;DHT22;13300;51.032;3.710;2023-02-15T12:36:56;16.80;99.90
25346;DHT22;13300;51.032;3.710;2023-02-15T12:39:27;16.60;99.90
25346;DHT22;13300;51.032;3.710;2023-02-15T12:44:30;15.90;99.90
25346;DHT22;13300;51.032;3.710;2023-02-15T12:49:42;16.20;99.90
25346;DHT22;13300;51.032;3.710;2023-02-15T12:54:44;17.20;99.90
25346;DHT22;13300;51.032;3.710;2023-02-15T12:57:25;17.10;99.90
25346;DHT22;13300;51.032;3.710;2023-02-15T12:59:57;17.60;99.90
25346;DHT22;13300;51.032;3.710;2023-02-15T13:02:30;18.00;99.90
25346;DHT22;13300;51.032;3.710;2023-02-15T13:04:57;18.60;99.90
25346;DHT22;13300;51.032;3.710;2023-02-15T13:07:30;19.00;99.90
25346;DHT22;13300;51.032;3.710;2023-02-15T13:09:57;19.20;99.90
25346;DHT22;13300;51.032;3.710;2023-02-15T13:12:25;19.40;99.90
25346;DHT22;13300;51.032;3.710;2023-02-15T13:14:56;19.30;99.90
25346;DHT22;13300;51.032;3.710;2023-02-15T13:17:31;18.90;99.90
25346;DHT22;13300;51.032;3.710;2023-02-15T13:20:04;19.50;99.90
25346;DHT22;13300;51.032;3.710;2023-02-15T13:22:41;19.90;99.90
25346;DHT22;13300;51.032;3.710;2023-02-15T13:25:18;19.70;99.30
25346;DHT22;13300;51.032;3.710;2023-02-15T13:27:48;19.20;99.90
25346;DHT22;13300;51.032;3.710;2023-02-15T13:30:26;19.60;99.90
25346;DHT22;13300;51.032;3.710;2023-02-15T13:32:57;19.90;99.50
25346;DHT22;13300;51.032;3.710;2023-02-15T13:35:28;19.50;99.60
25346;DHT22;13300;51.032;3.710;2023-02-15T13:40:58;19.40;99.40
25346;DHT22;13300;51.032;3.710;2023-02-15T13:48:48;19.20;99.70
25346;DHT22;13300;51.032;3.710;2023-02-15T13:51:43;18.50;99.30
25346;DHT22;13300;51.032;3.710;2023-02-15T14:06:08;19.90;98.30
25346;DHT22;13300;51.032;3.710;2023-02-15T14:08:58;19.40;98.40
25346;DHT22;13300;51.032;3.710;2023-02-15T14:17:24;18.50;99.90
25346;DHT22;13300;51.032;3.710;2023-02-15T14:20:15;18.50;99.90
25346;DHT22;13300;51.032;3.710;2023-02-15T14:22:50;18.70;99.70
25346;DHT22;13300;51.032;3.710;2023-02-15T14:25:34;19.10;99.20
25346;DHT22;13300;51.032;3.710;2023-02-15T14:30:31;18.80;99.80
25346;DHT22;13300;51.032;3.710;2023-02-15T14:33:20;18.40;99.90
25346;DHT22;13300;51.032;3.710;2023-02-15T14:35:49;17.70;99.90
25346;DHT22;13300;51.032;3.710;2023-02-15T14:38:58;17.80;99.90
25346;DHT22;13300;51.032;3.710;2023-02-15T14:41:37;17.30;99.90
25346;DHT22;13300;51.032;3.710;2023-02-15T14:44:15;16.80;99.90
25346;DHT22;13300;51.032;3.710;2023-02-15T14:46:55;16.80;99.90
25346;DHT22;13300;51.032;3.710;2023-02-15T14:49:27;16.40;99.90
25346;DHT22;13300;51.032;3.710;2023-02-15T14:51:58;15.60;99.90
25346;DHT22;13300;51.032;3.710;2023-02-15T15:02:26;14.50;99.90
25346;DHT22;13300;51.032;3.710;2023-02-15T15:05:01;14.10;99.90
25346;DHT22;13300;51.032;3.710;2023-02-15T15:10:36;13.40;99.90
25346;DHT22;13300;51.032;3.710;2023-02-15T15:18:48;12.90;99.90
25346;DHT22;13300;51.032;3.710;2023-02-15T15:29:46;13.50;99.90
25346;DHT22;13300;51.032;3.710;2023-02-15T15:32:18;13.40;99.90
25346;DHT22;13300;51.032;3.710;2023-02-15T15:35:09;13.20;99.90
25346;DHT22;13300;51.032;3.710;2023-02-15T15:43:26;13.10;99.90
25346;DHT22;13300;51.032;3.710;2023-02-15T15:46:07;13.20;99.90
25346;DHT22;13300;51.032;3.710;2023-02-15T15:56:06;12.80;99.90
25346;DHT22;13300;51.032;3.710;2023-02-15T15:58:55;12.70;99.90
25346;DHT22;13300;51.032;3.710;2023-02-15T16:01:30;12.60;99.90
25346;DHT22;13300;51.032;3.710;2023-02-15T16:04:03;12.80;99.90
25346;DHT22;13300;51.032;3.710;2023-02-15T16:10:03;12.40;99.90
25346;DHT22;13300;51.032;3.710;2023-02-15T16:12:34;12.40;99.90
25346;DHT22;13300;51.032;3.710;2023-02-15T16:15:14;12.30;99.90
25346;DHT22;13300;51.032;3.710;2023-02-15T16:17:46;12.20;99.90
25346;DHT22;13300;51.032;3.710;2023-02-15T16:20:23;12.20;99.90
25346;DHT22;13300;51.032;3.710;2023-02-15T16:23:12;12.20;99.90
25346;DHT22;13300;51.032;3.710;2023-02-15T16:25:47;11.90;99.90
25346;DHT22;13300;51.032;3.710;2023-02-15T16:28:32;11.90;99.90
25346;DHT22;13300;51.032;3.710;2023-02-15T16:31:06;11.80;99.90
25346;DHT22;13300;51.032;3.710;2023-02-15T16:33:37;11.70;99.90
25346;DHT22;13300;51.032;3.710;2023-02-15T16:36:06;11.80;99.90
25346;DHT22;13300;51.032;3.710;2023-02-15T16:41:41;11.60;99.90
25346;DHT22;13300;51.032;3.710;2023-02-15T16:44:31;11.40;99.90
25346;DHT22;13300;51.032;3.710;2023-02-15T16:47:01;11.40;99.90
25346;DHT22;13300;51.032;3.710;2023-02-15T16:49:28;11.30;99.90
25346;DHT22;13300;51.032;3.710;2023-02-15T16:51:59;11.20;99.90
25346;DHT22;13300;51.032;3.710;2023-02-15T16:54:35;11.30;99.90
25346;DHT22;13300;51.032;3.710;2023-02-15T16:57:21;11.30;99.90
25346;DHT22;13300;51.032;3.710;2023-02-15T17:00:36;11.20;99.90
25346;DHT22;13300;51.032;3.710;2023-02-15T17:03:24;11.30;99.90
25346;DHT22;13300;51.032;3.710;2023-02-15T17:06:00;11.20;99.90
25346;DHT22;13300;51.032;3.710;2023-02-15T17:08:50;11.10;99.90
25346;DHT22;13300;51.032;3.710;2023-02-15T17:12:02;11.10;99.90
25346;DHT22;13300;51.032;3.710;2023-02-15T17:17:35;11.00;99.90
25346;DHT22;13300;51.032;3.710;2023-02-15T17:43:38;10.40;99.90
25346;DHT22;13300;51.032;3.710;2023-02-15T17:46:13;10.50;99.90
25346;DHT22;13300;51.032;3.710;2023-02-15T17:55:07;10.70;99.90
25346;DHT22;13300;51.032;3.710;2023-02-15T17:58:05;10.90;99.90
25346;DHT22;13300;51.032;3.710;2023-02-15T18:00:51;11.00;99.90
25346;DHT22;13300;51.032;3.710;2023-02-15T18:03:47;11.00;99.90
25346;DHT22;13300;51.032;3.710;2023-02-15T18:06:34;11.00;99.90
25346;DHT22;13300;51.032;3.710;2023-02-15T18:09:23;10.80;99.90
25346;DHT22;13300;51.032;3.710;2023-02-15T18:12:33;10.80;99.90
25346;DHT22;13300;51.032;3.710;2023-02-15T18:15:05;10.80;99.90
25346;DHT22;13300;51.032;3.710;2023-02-15T18:17:36;10.70;99.90
25346;DHT22;13300;51.032;3.710;2023-02-15T18:20:09;10.70;99.90
25346;DHT22;13300;51.032;3.710;2023-02-15T18:22:47;10.60;99.90
25346;DHT22;13300;51.032;3.710;2023-02-15T18:25:17;10.50;99.90
25346;DHT22;13300;51.032;3.710;2023-02-15T18:27:46;10.60;99.90
25346;DHT22;13300;51.032;3.710;2023-02-15T18:30:20;10.50;99.90
25346;DHT22;13300;51.032;3.710;2023-02-15T18:32:50;10.50;99.90
25346;DHT22;13300;51.032;3.710;2023-02-15T18:35:21;10.40;99.90
25346;DHT22;13300;51.032;3.710;2023-02-15T18:37:48;10.30;99.90
25346;DHT22;13300;51.032;3.710;2023-02-15T18:40:20;10.30;99.90
25346;DHT22;13300;51.032;3.710;2023-02-15T18:42:47;10.40;99.90
25346;DHT22;13300;51.032;3.710;2023-02-15T18:45:18;10.30;99.90
25346;DHT22;13300;51.032;3.710;2023-02-15T19:02:21;9.60;99.90
25346;DHT22;13300;51.032;3.710;2023-02-15T19:08:23;9.50;99.90
25346;DHT22;13300;51.032;3.710;2023-02-15T19:10:50;9.40;99.90
25346;DHT22;13300;51.032;3.710;2023-02-15T19:13:16;9.40;99.90
25346;DHT22;13300;51.032;3.710;2023-02-15T19:15:44;9.40;99.90
25346;DHT22;13300;51.032;3.710;2023-02-15T19:18:13;9.50;99.90
25346;DHT22;13300;51.032;3.710;2023-02-15T19:20:46;9.40;99.90
25346;DHT22;13300;51.032;3.710;2023-02-15T19:23:23;9.40;99.90
25346;DHT22;13300;51.032;3.710;2023-02-15T19:25:51;9.30;99.90
25346;DHT22;13300;51.032;3.710;2023-02-15T19:28:33;9.20;99.90
25346;DHT22;13300;51.032;3.710;2023-02-15T19:30:58;9.20;99.90
25346;DHT22;13300;51.032;3.710;2023-02-15T19:33:24;9.20;99.90
25346;DHT22;13300;51.032;3.710;2023-02-15T19:35:52;9.20;99.90
25346;DHT22;13300;51.032;3.710;2023-02-15T19:38:28;9.10;99.90
25346;DHT22;13300;51.032;3.710;2023-02-15T19:40:59;9.10;99.90
25346;DHT22;13300;51.032;3.710;2023-02-15T19:43:26;9.10;99.90
25346;DHT22;13300;51.032;3.710;2023-02-15T19:45:54;9.00;99.90
25346;DHT22;13300;51.032;3.710;2023-02-15T19:48:20;9.00;99.90
25346;DHT22;13300;51.032;3.710;2023-02-15T19:50:46;9.00;99.90
25346;DHT22;13300;51.032;3.710;2023-02-15T19:53:25;8.90;99.90
25346;DHT22;13300;51.032;3.710;2023-02-15T19:55:52;8.80;99.90
25346;DHT22;13300;51.032;3.710;2023-02-15T19:58:18;8.80;99.90
25346;DHT22;13300;51.032;3.710;2023-02-15T20:00:49;8.70;99.90
25346;DHT22;13300;51.032;3.710;2023-02-15T20:03:15;8.70;99.90
25346;DHT22;13300;51.032;3.710;2023-02-15T20:05:42;8.60;99.90
25346;DHT22;13300;51.032;3.710;2023-02-15T20:08:17;8.60;99.90
25346;DHT22;13300;51.032;3.710;2023-02-15T20:10:44;8.50;99.90
25346;DHT22;13300;51.032;3.710;2023-02-15T20:13:16;8.50;99.90
25346;DHT22;13300;51.032;3.710;2023-02-15T20:15:42;8.50;99.90
25346;DHT22;13300;51.032;3.710;2023-02-15T20:18:09;8.50;99.90
25346;DHT22;13300;51.032;3.710;2023-02-15T20:20:51;8.50;99.90
25346;DHT22;13300;51.032;3.710;2023-02-15T20:23:26;8.50;99.90
25346;DHT22;13300;51.032;3.710;2023-02-15T20:25:57;8.40;99.90
25346;DHT22;13300;51.032;3.710;2023-02-15T20:28:26;8.40;99.90
25346;DHT22;13300;51.032;3.710;2023-02-15T20:30:55;8.50;99.90
25346;DHT22;13300;51.032;3.710;2023-02-15T20:33:21;8.50;99.90
25346;DHT22;13300;51.032;3.710;2023-02-15T20:35:48;8.50;99.90
25346;DHT22;13300;51.032;3.710;2023-02-15T20:38:20;8.50;99.90
25346;DHT22;13300;51.032;3.710;2023-02-15T20:40:46;8.40;99.90
25346;DHT22;13300;51.032;3.710;2023-02-15T20:43:32;8.30;99.90
25346;DHT22;13300;51.032;3.710;2023-02-15T20:45:58;8.20;99.90
25346;DHT22;13300;51.032;3.710;2023-02-15T20:48:24;8.30;99.90
25346;DHT22;13300;51.032;3.710;2023-02-15T20:50:50;8.30;99.90
25346;DHT22;13300;51.032;3.710;2023-02-15T20:56:40;8.30;99.90
25346;DHT22;13300;51.032;3.710;2023-02-15T21:01:57;8.20;99.90
25346;DHT22;13300;51.032;3.710;2023-02-15T21:04:32;8.00;99.90
25346;DHT22;13300;51.032;3.710;2023-02-15T21:06:59;8.00;99.90